Time;durP1;ratioP1;P1;durP2;ratioP2;P2;SDS_P1;SDS_P2;PMS_P1;PMS_P2;Temp;Humidity;BMP_temperature;BMP_pressure;BME280_temperature;BME280_humidity;BME280_pressure;Samples;Min_cycle;Max_cycle;Signal;HPM_P1;HPM_P2
2021/04/14 00:02:07;;;;;;;12.10;9.77;;;;;;;4.37;100.00;103256.85;1792838;79;26702;-74
2021/04/14 00:04:38;;;;;;;13.53;10.83;;;;;;;4.07;100.00;103253.66;1783120;79;26231;-74
2021/04/14 00:07:10;;;;;;;14.67;10.83;;;;;;;3.91;100.00;103262.04;1790611;80;26230;-73
2021/04/14 00:09:40;;;;;;;11.33;9.40;;;;;;;3.58;100.00;103262.25;1785571;80;26305;-74
2021/04/14 00:12:12;;;;;;;12.30;9.80;;;;;;;3.40;100.00;103263.03;1792820;79;26218;-74
2021/04/14 00:14:43;;;;;;;10.53;8.00;;;;;;;3.38;100.00;103259.59;1792761;80;26214;-73
2021/04/14 00:17:12;;;;;;;8.40;7.50;;;;;;;3.30;100.00;103264.26;1792658;80;26257;-74
2021/04/14 00:19:42;;;;;;;8.10;7.27;;;;;;;3.31;100.00;103263.23;1789114;80;26693;-74
2021/04/14 00:22:12;;;;;;;10.10;7.90;;;;;;;3.49;100.00;103255.09;1783217;80;26222;-74
2021/04/14 00:24:43;;;;;;;11.30;8.43;;;;;;;3.48;100.00;103261.61;1790599;78;26390;-74
2021/04/14 00:27:13;;;;;;;11.20;9.07;;;;;;;3.50;100.00;103258.17;1787998;79;26324;-74
2021/04/14 00:29:42;;;;;;;10.57;8.60;;;;;;;3.52;100.00;103264.33;1787793;80;26230;-74
2021/04/14 00:32:12;;;;;;;11.50;8.93;;;;;;;3.66;100.00;103259.97;1783163;80;26207;-74
2021/04/14 00:34:42;;;;;;;13.03;9.63;;;;;;;3.84;100.00;103255.56;1778731;80;26281;-74
2021/04/14 00:37:12;;;;;;;11.07;8.77;;;;;;;3.95;100.00;103254.62;1778651;81;26623;-74
2021/04/14 00:39:42;;;;;;;11.57;9.50;;;;;;;3.80;100.00;103254.22;1781020;80;26214;-74
2021/04/14 00:42:12;;;;;;;10.83;9.33;;;;;;;3.63;100.00;103258.45;1787531;79;26725;-74
2021/04/14 00:44:42;;;;;;;13.87;10.70;;;;;;;3.51;100.00;103252.14;1786071;79;26282;-74
2021/04/14 00:47:12;;;;;;;13.37;10.73;;;;;;;3.65;100.00;103251.38;1778521;80;26231;-74
2021/04/14 00:49:42;;;;;;;13.83;10.33;;;;;;;3.79;100.00;103249.75;1781884;80;26756;-74
2021/04/14 00:52:12;;;;;;;14.90;10.50;;;;;;;3.81;100.00;103248.52;1788002;80;26288;-74
2021/04/14 00:54:41;;;;;;;15.60;12.07;;;;;;;3.88;100.00;103239.90;1787407;80;26673;-74
2021/04/14 00:57:11;;;;;;;16.53;12.33;;;;;;;4.11;100.00;103239.87;1779163;80;26262;-74
2021/04/14 00:59:41;;;;;;;16.53;12.03;;;;;;;4.16;100.00;103238.81;1793078;79;26208;-74
2021/04/14 01:02:11;;;;;;;15.10;12.30;;;;;;;4.25;100.00;103231.34;1811701;78;26340;-74
2021/04/14 01:04:41;;;;;;;15.67;11.50;;;;;;;4.18;100.00;103231.24;1779375;80;26323;-73
2021/04/14 01:07:11;;;;;;;13.87;11.27;;;;;;;4.18;100.00;103228.49;1780201;79;26215;-74
2021/04/14 01:09:40;;;;;;;14.70;10.83;;;;;;;4.13;100.00;103231.80;1778785;80;26720;-74
2021/04/14 01:12:12;;;;;;;14.47;10.47;;;;;;;3.98;100.00;103232.79;1778745;81;26294;-74
2021/04/14 01:14:42;;;;;;;13.90;10.93;;;;;;;3.98;100.00;103233.62;1779037;80;26222;-74
2021/04/14 01:17:11;;;;;;;12.70;10.40;;;;;;;4.02;100.00;103239.63;1779591;80;26207;-74
2021/04/14 01:19:41;;;;;;;15.13;11.33;;;;;;;3.86;100.00;103243.84;1779469;80;26282;-73
2021/04/14 01:22:11;;;;;;;17.03;11.60;;;;;;;3.79;100.00;103240.99;1780163;80;26293;-73
2021/04/14 01:24:41;;;;;;;11.73;10.00;;;;;;;3.83;100.00;103242.84;1790329;79;26300;-73
2021/04/14 01:27:11;;;;;;;15.37;12.00;;;;;;;3.74;100.00;103239.30;1778385;81;26219;-74
2021/04/14 01:29:41;;;;;;;14.27;11.63;;;;;;;3.82;100.00;103235.63;1778386;81;26296;-74
2021/04/14 01:32:11;;;;;;;12.97;10.63;;;;;;;3.79;100.00;103233.26;1778581;80;26321;-74
2021/04/14 01:34:41;;;;;;;14.03;11.10;;;;;;;3.89;100.00;103236.13;1778567;80;26221;-73
2021/04/14 01:37:11;;;;;;;15.50;12.27;;;;;;;4.08;100.00;103236.98;1778495;80;26293;-73
2021/04/14 01:39:40;;;;;;;15.57;11.80;;;;;;;4.20;100.00;103240.15;1778226;80;26224;-73
2021/04/14 01:42:10;;;;;;;16.57;12.67;;;;;;;4.01;100.00;103241.52;1790620;80;26218;-74
2021/04/14 01:44:40;;;;;;;15.20;11.53;;;;;;;4.00;100.00;103243.93;1800994;80;26721;-73
2021/04/14 01:47:10;;;;;;;15.53;13.47;;;;;;;3.95;100.00;103240.88;1800936;80;26653;-73
2021/04/14 01:49:40;;;;;;;16.33;13.43;;;;;;;4.04;100.00;103240.28;1800928;80;26732;-73
2021/04/14 01:52:10;;;;;;;15.77;12.70;;;;;;;4.08;100.00;103243.00;1779206;80;26230;-74
2021/04/14 01:54:39;;;;;;;17.87;13.90;;;;;;;4.29;100.00;103248.67;1778482;80;26228;-74
2021/04/14 01:57:10;;;;;;;17.67;12.87;;;;;;;4.40;100.00;103242.75;1778416;81;26753;-74
2021/04/14 01:59:40;;;;;;;17.83;13.50;;;;;;;4.25;100.00;103243.20;1778470;80;26223;-73
2021/04/14 02:02:10;;;;;;;14.80;11.70;;;;;;;4.09;100.00;103240.59;1778343;79;26321;-73
2021/04/14 02:04:40;;;;;;;15.03;11.60;;;;;;;4.00;100.00;103248.57;1778509;80;26285;-73
2021/04/14 02:07:10;;;;;;;16.83;11.37;;;;;;;3.88;100.00;103249.52;1778314;81;26217;-73
2021/04/14 02:09:40;;;;;;;13.27;10.90;;;;;;;3.86;100.00;103241.96;1778412;81;26743;-74
2021/04/14 02:12:12;;;;;;;14.00;10.87;;;;;;;3.92;100.00;103237.13;1778439;81;26230;-73
2021/04/14 02:14:43;;;;;;;15.83;11.00;;;;;;;3.98;100.00;103240.49;1778288;81;26272;-74
2021/04/14 02:17:13;;;;;;;13.57;11.27;;;;;;;4.00;100.00;103244.45;1778347;80;26235;-74
2021/04/14 02:19:43;;;;;;;14.60;11.43;;;;;;;3.86;100.00;103239.21;1778102;79;26239;-74
2021/04/14 02:22:13;;;;;;;14.93;11.37;;;;;;;3.93;100.00;103242.10;1778381;80;26227;-73
2021/04/14 02:24:43;;;;;;;15.33;12.53;;;;;;;4.10;100.00;103234.92;1778439;81;26396;-73
2021/04/14 02:27:13;;;;;;;15.43;12.37;;;;;;;4.22;100.00;103240.83;1778399;79;26263;-73
2021/04/14 02:29:42;;;;;;;16.97;13.37;;;;;;;4.08;100.00;103235.61;1778443;81;26650;-73
2021/04/14 02:32:13;;;;;;;16.37;13.00;;;;;;;4.07;100.00;103231.66;1778393;80;26238;-73
2021/04/14 02:34:42;;;;;;;14.87;11.97;;;;;;;4.18;100.00;103233.13;1778476;80;26211;-73
2021/04/14 02:37:12;;;;;;;16.00;12.67;;;;;;;4.25;100.00;103227.22;1778367;80;26220;-74
2021/04/14 02:39:43;;;;;;;18.00;13.30;;;;;;;4.36;100.00;103231.77;1778405;80;26216;-74
2021/04/14 02:42:13;;;;;;;20.33;13.40;;;;;;;4.38;100.00;103232.95;1778584;80;26297;-74
2021/04/14 02:44:43;;;;;;;16.83;13.00;;;;;;;4.26;100.00;103235.81;1778407;81;26274;-75
2021/04/14 02:47:12;;;;;;;15.97;12.70;;;;;;;4.36;100.00;103235.05;1778221;81;26629;-74
2021/04/14 02:49:42;;;;;;;15.20;12.57;;;;;;;4.39;100.00;103238.79;1778565;80;26286;-74
2021/04/14 02:52:12;;;;;;;12.97;10.80;;;;;;;4.30;100.00;103236.63;1778285;79;26285;-74
2021/04/14 02:54:42;;;;;;;14.03;11.13;;;;;;;4.11;100.00;103240.73;1778357;80;26227;-74
2021/04/14 02:57:12;;;;;;;13.27;11.20;;;;;;;4.01;100.00;103238.77;1778334;81;26662;-74
2021/04/14 02:59:41;;;;;;;15.47;11.37;;;;;;;3.95;100.00;103234.51;1778346;80;26700;-74
2021/04/14 03:02:11;;;;;;;14.33;11.47;;;;;;;4.09;100.00;103233.72;1778608;79;26262;-74
2021/04/14 03:04:41;;;;;;;14.70;12.40;;;;;;;4.26;100.00;103232.55;1778329;81;26282;-74
2021/04/14 03:07:11;;;;;;;15.83;12.00;;;;;;;4.26;100.00;103235.81;1778255;81;26215;-74
2021/04/14 03:09:41;;;;;;;16.93;12.93;;;;;;;4.41;100.00;103228.44;1778351;80;26733;-74
2021/04/14 03:12:13;;;;;;;15.70;11.50;;;;;;;4.52;100.00;103229.38;1778358;81;26328;-74
2021/04/14 03:14:44;;;;;;;13.87;12.13;;;;;;;4.54;100.00;103227.28;1778445;81;26572;-74
2021/04/14 03:17:14;;;;;;;16.20;12.93;;;;;;;4.37;100.00;103234.84;1778453;81;26290;-73
2021/04/14 03:19:44;;;;;;;20.40;13.47;;;;;;;4.37;100.00;103229.34;1778348;81;26281;-73
2021/04/14 03:22:14;;;;;;;20.47;14.27;;;;;;;4.43;100.00;103228.60;1778518;80;26274;-73
2021/04/14 03:24:44;;;;;;;18.67;14.33;;;;;;;4.53;100.00;103230.58;1778382;80;26297;-74
2021/04/14 03:27:30;;;;;;;21.57;16.43;;;;;;;4.51;100.00;103229.90;1792800;78;33838;-74
2021/04/14 03:30:00;;;;;;;21.93;16.00;;;;;;;4.51;100.00;103230.41;1769671;81;26751;-74
2021/04/14 03:32:33;;;;;;;23.60;15.90;;;;;;;4.53;100.00;103229.20;1793409;79;26762;-74
2021/04/14 03:35:06;;;;;;;22.07;16.10;;;;;;;4.55;100.00;103225.72;1769538;81;26452;-74
2021/04/14 03:37:36;;;;;;;20.53;15.77;;;;;;;4.55;100.00;103227.10;1770287;80;26687;-73
2021/04/14 03:40:08;;;;;;;23.07;15.83;;;;;;;4.52;100.00;103223.88;1769645;81;26247;-73
2021/04/14 03:42:38;;;;;;;20.83;15.60;;;;;;;4.54;100.00;103220.39;1757877;81;26694;-73
2021/04/14 03:45:14;;;;;;;22.30;16.30;;;;;;;4.70;100.00;103218.88;1751029;81;26308;-73
2021/04/14 03:47:45;;;;;;;26.03;16.70;;;;;;;4.62;100.00;103223.06;1775791;80;26233;-72
2021/04/14 03:50:18;;;;;;;19.83;16.03;;;;;;;4.56;100.00;103230.72;1769540;81;26249;-73
2021/04/14 03:52:48;;;;;;;20.53;15.73;;;;;;;4.36;100.00;103229.03;1793501;79;26307;-72
2021/04/14 03:55:21;;;;;;;19.73;14.50;;;;;;;4.06;100.00;103234.92;1769532;81;26716;-72
2021/04/14 03:57:51;;;;;;;18.30;14.90;;;;;;;3.91;100.00;103231.80;1792941;79;26668;-75
2021/04/14 04:00:22;;;;;;;16.93;13.40;;;;;;;3.81;100.00;103229.28;1777983;78;937120;-75
2021/04/14 04:02:52;;;;;;;18.13;13.40;;;;;;;3.70;100.00;103232.97;1789438;79;26307;-74
2021/04/14 04:05:21;;;;;;;20.57;15.33;;;;;;;3.72;100.00;103228.16;1789423;80;26327;-75
2021/04/14 04:07:51;;;;;;;19.73;14.53;;;;;;;3.56;100.00;103229.09;1789490;80;26239;-74
2021/04/14 04:10:21;;;;;;;20.67;14.63;;;;;;;3.62;100.00;103233.37;1789404;80;26241;-74
2021/04/14 04:12:51;;;;;;;21.67;15.13;;;;;;;3.64;100.00;103228.53;1789373;80;26705;-74
2021/04/14 04:15:21;;;;;;;20.23;15.73;;;;;;;3.61;100.00;103224.78;1789402;80;26662;-74
2021/04/14 04:17:51;;;;;;;22.23;15.13;;;;;;;3.66;100.00;103231.11;1789430;80;26243;-74
2021/04/14 04:20:21;;;;;;;21.27;15.63;;;;;;;3.77;100.00;103222.43;1789429;79;26255;-74
2021/04/14 04:22:51;;;;;;;20.83;15.90;;;;;;;3.84;100.00;103229.45;1779365;80;26644;-74
2021/04/14 04:25:21;;;;;;;22.27;15.57;;;;;;;3.80;100.00;103229.48;1778104;81;26211;-74
2021/04/14 04:27:51;;;;;;;21.73;14.93;;;;;;;3.88;100.00;103231.65;1778018;80;26274;-74
2021/04/14 04:30:24;;;;;;;19.77;14.27;;;;;;;3.78;100.00;103242.02;1778238;80;26219;-74
2021/04/14 04:32:53;;;;;;;20.27;14.90;;;;;;;3.85;100.00;103247.66;1778832;79;26240;-72
2021/04/14 04:35:25;;;;;;;19.33;15.07;;;;;;;3.87;100.00;103256.56;1778264;80;26301;-73
2021/04/14 04:37:55;;;;;;;18.67;14.97;;;;;;;3.65;100.00;103263.75;1778250;80;26317;-72
2021/04/14 04:40:25;;;;;;;20.83;15.27;;;;;;;3.72;100.00;103248.78;1778267;80;26220;-72
2021/04/14 04:42:56;;;;;;;20.77;15.57;;;;;;;3.86;100.00;103247.97;1778250;80;26219;-72
2021/04/14 04:45:28;;;;;;;22.53;16.87;;;;;;;4.05;100.00;103250.26;1778272;80;26691;-73
2021/04/14 04:47:59;;;;;;;21.20;16.03;;;;;;;4.11;100.00;103240.73;1778258;80;26759;-73
2021/04/14 04:50:30;;;;;;;21.77;16.67;;;;;;;4.07;100.00;103250.91;1778217;81;26223;-73
2021/04/14 04:53:03;;;;;;;25.07;18.73;;;;;;;4.25;100.00;103240.45;1778183;81;26297;-73
2021/04/14 04:55:35;;;;;;;24.77;17.50;;;;;;;4.54;100.00;103237.77;1778216;81;26242;-73
2021/04/14 04:58:05;;;;;;;23.03;17.87;;;;;;;4.61;100.00;103246.67;1778335;80;26224;-72
2021/04/14 05:00:36;;;;;;;25.00;17.73;;;;;;;4.66;100.00;103236.81;1778198;81;26289;-73
2021/04/14 05:03:07;;;;;;;27.77;19.63;;;;;;;4.72;100.00;103230.54;1778169;79;26247;-73
2021/04/14 05:05:39;;;;;;;26.47;18.80;;;;;;;4.85;100.00;103238.14;1778212;81;26737;-73
2021/04/14 05:08:11;;;;;;;23.37;18.43;;;;;;;4.86;100.00;103243.47;1778303;80;26286;-73
2021/04/14 05:10:41;;;;;;;24.43;18.03;;;;;;;4.75;100.00;103238.41;1778185;80;26222;-74
2021/04/14 05:13:11;;;;;;;24.03;18.23;;;;;;;4.75;100.00;103243.09;1778066;81;26709;-73
2021/04/14 05:15:42;;;;;;;29.43;18.03;;;;;;;4.77;100.00;103247.88;1778319;80;26293;-73
2021/04/14 05:18:12;;;;;;;28.07;18.97;;;;;;;4.76;100.00;103254.41;1778237;80;26238;-73
2021/04/14 05:20:44;;;;;;;23.03;18.07;;;;;;;4.73;100.00;103250.67;1778365;80;26744;-74
2021/04/14 05:23:14;;;;;;;23.80;18.53;;;;;;;4.65;100.00;103250.23;1778270;80;26231;-72
2021/04/14 05:25:46;;;;;;;25.37;17.53;;;;;;;4.54;100.00;103251.53;1778194;81;26231;-72
2021/04/14 05:28:18;;;;;;;24.30;17.80;;;;;;;4.68;100.00;103255.36;1778161;79;26746;-73
2021/04/14 05:30:47;;;;;;;22.67;17.73;;;;;;;4.57;100.00;103258.58;1778451;81;26336;-73
2021/04/14 05:33:19;;;;;;;26.27;17.53;;;;;;;4.74;100.00;103262.88;1778308;80;26519;-73
2021/04/14 05:35:48;;;;;;;25.00;17.77;;;;;;;4.76;100.00;103267.66;1778237;80;26781;-73
2021/04/14 05:38:19;;;;;;;28.00;20.20;;;;;;;4.65;100.00;103260.39;1778269;81;26267;-73
2021/04/14 05:40:49;;;;;;;29.97;19.60;;;;;;;4.89;100.00;103267.88;1778330;80;26226;-74
2021/04/14 05:43:22;;;;;;;28.67;19.80;;;;;;;5.07;100.00;103271.64;1778183;81;26301;-75
2021/04/14 05:45:56;;;;;;;27.83;20.60;;;;;;;5.14;100.00;103260.17;1778194;80;26305;-75
2021/04/14 05:48:27;;;;;;;25.83;19.13;;;;;;;5.25;100.00;103271.26;1778315;81;26375;-72
2021/04/14 05:50:59;;;;;;;27.73;20.20;;;;;;;5.10;100.00;103280.03;1778257;80;26207;-74
2021/04/14 05:53:29;;;;;;;25.03;18.83;;;;;;;5.18;100.00;103278.59;1778181;80;26215;-74
2021/04/14 05:55:59;;;;;;;25.37;18.10;;;;;;;5.25;100.00;103273.49;1778189;80;26227;-74
2021/04/14 05:58:30;;;;;;;23.97;18.23;;;;;;;5.07;100.00;103285.93;1778218;80;26298;-74
2021/04/14 06:01:00;;;;;;;27.07;18.97;;;;;;;5.13;100.00;103285.19;1778205;80;26231;-74
2021/04/14 06:03:30;;;;;;;29.27;19.93;;;;;;;5.20;100.00;103287.50;1778201;79;26250;-74
2021/04/14 06:06:01;;;;;;;29.07;20.23;;;;;;;5.25;100.00;103287.27;1778354;81;26207;-74
2021/04/14 06:08:32;;;;;;;30.43;20.13;;;;;;;5.33;100.00;103281.66;1778478;80;26219;-74
2021/04/14 06:11:03;;;;;;;28.97;20.03;;;;;;;5.33;100.00;103283.03;1778392;80;26223;-74
2021/04/14 06:13:35;;;;;;;29.73;19.87;;;;;;;5.26;100.00;103295.02;1778154;80;26250;-73
2021/04/14 06:16:07;;;;;;;26.60;18.60;;;;;;;5.36;100.00;103287.30;1778275;80;26655;-74
2021/04/14 06:18:38;;;;;;;29.07;21.80;;;;;;;5.40;100.00;103289.48;1778251;81;26214;-73
2021/04/14 06:21:08;;;;;;;27.83;19.63;;;;;;;5.54;100.00;103295.17;1778257;80;26250;-73
2021/04/14 06:23:38;;;;;;;26.13;20.03;;;;;;;5.40;100.00;103292.76;1778315;80;26267;-75
2021/04/14 06:26:22;;;;;;;28.70;19.00;;;;;;;5.71;100.00;103293.91;1778186;81;26390;-73
2021/04/14 06:28:48;;;;;;;28.40;19.43;;;;;;;5.62;100.00;103301.95;1778361;79;26326;-73
2021/04/14 06:31:18;;;;;;;25.30;19.50;;;;;;;5.68;100.00;103305.33;1778156;81;26268;-73
2021/04/14 06:33:49;;;;;;;27.83;18.90;;;;;;;5.78;100.00;103307.24;1778214;81;26339;-73
2021/04/14 06:36:19;;;;;;;28.43;20.23;;;;;;;5.86;100.00;103313.53;1778314;80;26293;-73
2021/04/14 06:38:52;;;;;;;27.43;19.10;;;;;;;5.89;100.00;103315.92;1778251;80;26339;-73
2021/04/14 06:41:40;;;;;;;24.80;19.80;;;;;;;5.73;100.00;103313.37;1778236;81;26665;-73
2021/04/14 06:44:10;;;;;;;27.27;20.63;;;;;;;5.70;100.00;103315.63;1778170;79;26227;-73
2021/04/14 06:46:41;;;;;;;28.57;20.77;;;;;;;5.79;100.00;103315.85;1778306;81;26305;-73
2021/04/14 06:49:14;;;;;;;28.73;21.13;;;;;;;5.89;100.00;103311.78;1778193;80;26666;-73
2021/04/14 06:51:47;;;;;;;30.20;21.03;;;;;;;6.09;100.00;103318.05;1778444;80;26223;-73
2021/04/14 06:54:25;;;;;;;32.80;20.67;;;;;;;6.25;100.00;103315.02;1778127;79;26314;-73
2021/04/14 06:56:58;;;;;;;28.83;20.53;;;;;;;6.49;100.00;103309.13;1778352;81;26293;-73
2021/04/14 06:59:31;;;;;;;28.57;21.10;;;;;;;6.50;100.00;103304.47;1778370;81;26332;-73
2021/04/14 07:02:05;;;;;;;29.27;21.30;;;;;;;6.49;100.00;103302.23;1778113;79;26243;-74
2021/04/14 07:04:39;;;;;;;31.37;21.07;;;;;;;6.53;100.00;103298.02;1778193;80;26309;-74
2021/04/14 07:07:12;;;;;;;32.07;22.63;;;;;;;6.67;100.00;103294.32;1778196;80;26227;-74
2021/04/14 07:09:44;;;;;;;29.83;21.43;;;;;;;6.86;100.00;103288.61;1778401;79;26378;-73
2021/04/14 07:12:18;;;;;;;26.50;19.40;;;;;;;6.88;100.00;103283.75;1778266;81;26244;-73
2021/04/14 07:14:50;;;;;;;31.07;21.00;;;;;;;7.00;100.00;103286.80;1778105;81;26355;-73
2021/04/14 07:17:25;;;;;;;27.87;19.83;;;;;;;6.90;100.00;103294.58;1778459;80;26631;-73
2021/04/14 07:20:23;;;;;;;27.70;19.67;;;;;;;6.95;100.00;103290.16;1778182;81;26662;-74
2021/04/14 07:23:23;;;;;;;27.43;19.90;;;;;;;7.07;100.00;103289.92;1778281;80;26289;-74
2021/04/14 07:25:57;;;;;;;27.27;19.80;;;;;;;7.25;100.00;103284.73;1778316;80;26300;-73
2021/04/14 07:28:42;;;;;;;27.23;19.17;;;;;;;7.25;100.00;103279.20;1778282;80;26297;-74
2021/04/14 07:31:15;;;;;;;25.83;20.53;;;;;;;7.46;100.00;103281.01;1778268;80;26336;-74
2021/04/14 07:33:54;;;;;;;24.17;19.37;;;;;;;7.51;100.00;103290.08;1778155;80;26654;-73
2021/04/14 07:36:29;;;;;;;27.27;20.30;;;;;;;7.59;100.00;103293.52;1778285;80;26207;-73
2021/04/14 07:39:02;;;;;;;28.27;20.60;;;;;;;7.46;100.00;103287.92;1778179;79;26270;-73
2021/04/14 07:41:38;;;;;;;25.57;19.83;;;;;;;7.81;100.00;103292.02;1778386;79;26219;-72
2021/04/14 07:44:12;;;;;;;28.27;19.73;;;;;;;7.98;100.00;103293.34;1778299;79;26346;-73
2021/04/14 07:46:46;;;;;;;24.90;18.83;;;;;;;8.27;100.00;103286.06;1778107;79;26634;-73
2021/04/14 07:49:18;;;;;;;27.47;19.40;;;;;;;8.41;100.00;103283.67;1778410;81;26721;-73
2021/04/14 07:51:48;;;;;;;27.20;20.23;;;;;;;8.59;100.00;103280.28;1778109;81;26297;-73
2021/04/14 07:54:18;;;;;;;28.60;20.20;;;;;;;8.91;100.00;103280.78;1778212;80;26686;-73
2021/04/14 07:56:51;;;;;;;26.30;20.03;;;;;;;8.92;100.00;103271.41;1778177;80;26263;-73
2021/04/14 07:59:30;;;;;;;25.30;19.57;;;;;;;9.11;100.00;103278.82;1778133;81;26304;-73
2021/04/14 08:02:02;;;;;;;25.67;19.67;;;;;;;9.02;100.00;103265.42;1778316;79;26312;-73
2021/04/14 08:04:36;;;;;;;24.43;18.17;;;;;;;9.01;100.00;103270.12;1778227;80;26666;-73
2021/04/14 08:07:19;;;;;;;25.40;17.77;;;;;;;9.00;100.00;103270.32;1777875;79;26746;-74
2021/04/14 08:09:52;;;;;;;25.60;18.27;;;;;;;9.33;100.00;103270.23;1777730;80;26230;-74
2021/04/14 08:12:31;;;;;;;23.00;18.60;;;;;;;9.32;100.00;103275.48;1778227;81;26234;-74
2021/04/14 08:15:15;;;;;;;19.80;15.70;;;;;;;9.52;100.00;103274.34;1778172;81;26227;-74
2021/04/14 08:17:48;;;;;;;21.97;16.67;;;;;;;9.26;100.00;103270.80;1778183;80;26674;-74
2021/04/14 08:20:27;;;;;;;23.03;16.80;;;;;;;9.62;100.00;103262.79;1778189;80;26293;-73
2021/04/14 08:23:08;;;;;;;23.23;16.30;;;;;;;9.71;100.00;103264.25;1778160;80;26651;-73
2021/04/14 08:25:42;;;;;;;25.93;15.53;;;;;;;9.83;100.00;103267.17;1778146;80;26226;-73
2021/04/14 08:28:14;;;;;;;22.87;16.40;;;;;;;9.66;100.00;103261.27;1778129;81;26234;-73
2021/04/14 08:30:43;;;;;;;21.53;15.97;;;;;;;10.06;100.00;103261.36;1777999;79;26282;-74
2021/04/14 08:33:20;;;;;;;19.97;15.50;;;;;;;10.28;100.00;103250.77;1778138;80;26231;-74
2021/04/14 08:35:53;;;;;;;19.03;15.30;;;;;;;10.11;100.00;103261.22;1778187;80;26234;-73
2021/04/14 08:38:32;;;;;;;23.23;15.50;;;;;;;10.32;100.00;103256.19;1778170;80;26227;-72
2021/04/14 08:41:03;;;;;;;19.87;14.83;;;;;;;10.44;100.00;103257.70;1778190;80;26234;-73
2021/04/14 08:43:38;;;;;;;18.83;13.50;;;;;;;10.27;100.00;103251.84;1778067;81;26705;-73
2021/04/14 08:46:15;;;;;;;21.60;14.03;;;;;;;10.50;100.00;103256.81;1778140;80;26285;-73
2021/04/14 08:48:47;;;;;;;15.23;13.27;;;;;;;10.63;100.00;103254.45;1778207;80;26219;-73
2021/04/14 08:51:18;;;;;;;17.30;12.87;;;;;;;10.56;100.00;103261.47;1778150;81;26729;-73
2021/04/14 08:53:50;;;;;;;17.67;13.33;;;;;;;10.64;100.00;103262.58;1778176;80;26230;-73
2021/04/14 08:56:21;;;;;;;15.93;12.67;;;;;;;10.75;100.00;103254.88;1778126;80;26254;-73
2021/04/14 08:58:53;;;;;;;14.77;11.87;;;;;;;10.91;100.00;103263.20;1778193;80;26277;-73
2021/04/14 09:01:24;;;;;;;16.10;12.07;;;;;;;10.95;100.00;103257.48;1778174;81;26215;-73
2021/04/14 09:03:56;;;;;;;14.37;10.97;;;;;;;11.17;100.00;103258.72;1778072;79;26350;-74
2021/04/14 09:06:26;;;;;;;13.67;10.50;;;;;;;11.28;100.00;103262.69;1778134;80;26716;-74
2021/04/14 09:08:57;;;;;;;12.00;9.37;;;;;;;11.63;100.00;103257.34;1778115;80;26733;-74
2021/04/14 09:11:30;;;;;;;14.37;9.27;;;;;;;11.62;100.00;103252.31;1778138;80;26305;-74
2021/04/14 09:14:03;;;;;;;10.80;8.57;;;;;;;11.72;100.00;103251.23;1778184;80;26262;-73
2021/04/14 09:16:38;;;;;;;9.53;8.27;;;;;;;11.62;100.00;103252.86;1778172;80;26284;-74
2021/04/14 09:19:28;;;;;;;11.97;8.23;;;;;;;11.53;100.00;103254.25;1778090;80;26686;-74
2021/04/14 09:22:00;;;;;;;11.10;9.40;;;;;;;11.73;100.00;103257.12;1773323;79;26299;-74
2021/04/14 09:24:38;;;;;;;12.60;9.60;;;;;;;12.00;100.00;103257.61;1743287;82;26285;-74
2021/04/14 09:27:11;;;;;;;13.30;10.57;;;;;;;11.88;100.00;103255.86;1765411;81;26321;-74
2021/04/14 09:29:55;;;;;;;12.47;9.50;;;;;;;11.98;100.00;103259.77;1764703;81;26705;-74
2021/04/14 09:32:53;;;;;;;12.37;9.30;;;;;;;11.78;100.00;103257.27;1772187;80;26692;-74
2021/04/14 09:35:28;;;;;;;12.00;9.37;;;;;;;11.58;100.00;103258.05;1807279;79;26242;-74
2021/04/14 09:38:08;;;;;;;10.00;8.63;;;;;;;11.69;100.00;103252.22;1803201;79;26674;-74
2021/04/14 09:40:40;;;;;;;12.13;9.37;;;;;;;11.91;100.00;103260.95;1796546;80;26309;-74
2021/04/14 09:43:22;;;;;;;10.57;8.57;;;;;;;12.25;100.00;103252.73;1796383;80;26329;-74
2021/04/14 09:45:57;;;;;;;11.60;8.70;;;;;;;12.20;100.00;103252.59;1794994;79;26303;-73
2021/04/14 09:48:39;;;;;;;10.13;8.50;;;;;;;11.79;100.00;103254.80;1796345;80;26207;-74
2021/04/14 09:51:24;;;;;;;11.70;9.60;;;;;;;12.39;100.00;103258.09;1796343;80;26651;-74
2021/04/14 09:53:58;;;;;;;12.07;9.70;;;;;;;12.05;100.00;103255.51;1796427;80;26256;-74
2021/04/14 09:56:31;;;;;;;13.07;10.47;;;;;;;12.19;100.00;103245.30;1796604;78;26328;-74
2021/04/14 09:59:07;;;;;;;13.40;10.93;;;;;;;12.05;100.00;103254.97;1781489;80;26708;-75
2021/04/14 10:01:40;;;;;;;12.63;10.70;;;;;;;12.05;100.00;103248.55;1784666;80;26222;-76
2021/04/14 10:04:17;;;;;;;11.13;8.23;;;;;;;12.22;100.00;103248.18;1788095;79;26697;-76
2021/04/14 10:06:45;;;;;;;8.57;7.10;;;;;;;12.32;100.00;103249.28;1786793;80;26215;-75
2021/04/14 10:09:22;;;;;;;11.80;7.70;;;;;;;12.22;100.00;103249.03;1784481;79;26215;-75
2021/04/14 10:11:53;;;;;;;10.70;7.70;;;;;;;12.14;100.00;103248.52;1793932;79;26234;-76
2021/04/14 10:14:26;;;;;;;10.73;6.97;;;;;;;12.00;98.65;103242.29;1812158;79;26759;-79
2021/04/14 10:17:06;;;;;;;9.17;7.47;;;;;;;12.15;100.00;103244.66;1785545;80;26406;-75
2021/04/14 10:19:37;;;;;;;8.93;7.07;;;;;;;12.45;100.00;103238.46;1786725;80;26733;-77
2021/04/14 10:22:13;;;;;;;9.43;7.20;;;;;;;12.52;100.00;103244.80;1786828;80;26226;-76
2021/04/14 10:24:43;;;;;;;10.07;7.27;;;;;;;12.72;100.00;103237.47;1786187;78;26300;-76
2021/04/14 10:27:20;;;;;;;10.03;7.77;;;;;;;12.60;100.00;103238.86;1786318;80;26231;-78
2021/04/14 10:29:50;;;;;;;9.53;7.20;;;;;;;12.44;100.00;103236.78;1778593;80;26247;-79
2021/04/14 10:32:23;;;;;;;9.47;7.10;;;;;;;12.52;100.00;103236.97;1791531;79;26406;-76
2021/04/14 10:34:53;;;;;;;7.73;6.93;;;;;;;12.55;100.00;103233.70;1811753;79;26693;-76
2021/04/14 10:37:27;;;;;;;9.23;6.90;;;;;;;12.44;100.00;103240.11;1788404;80;26320;-77
2021/04/14 10:40:00;;;;;;;9.53;7.70;;;;;;;12.32;97.74;103235.34;1779750;79;26230;-77
2021/04/14 10:42:30;;;;;;;8.40;7.53;;;;;;;12.54;96.96;103239.81;1777794;78;27065;-76
2021/04/14 10:45:07;;;;;;;9.80;7.60;;;;;;;12.42;94.93;103236.16;1780560;80;26333;-76
2021/04/14 10:47:40;;;;;;;8.63;7.43;;;;;;;12.32;100.00;103235.91;1786706;80;26719;-76
2021/04/14 10:50:14;;;;;;;8.00;7.00;;;;;;;12.61;97.83;103232.20;1787958;79;26277;-75
2021/04/14 10:52:48;;;;;;;8.90;6.93;;;;;;;12.81;100.00;103236.02;1787802;79;26210;-76
2021/04/14 10:55:20;;;;;;;8.17;6.93;;;;;;;12.35;94.46;103231.79;1770407;80;26319;-76
2021/04/14 10:57:58;;;;;;;10.57;7.50;;;;;;;12.97;99.49;103221.88;1781821;80;26334;-76
2021/04/14 11:00:32;;;;;;;9.00;7.40;;;;;;;13.00;96.99;103228.39;1811235;79;26209;-76
2021/04/14 11:03:07;;;;;;;8.07;7.20;;;;;;;13.52;100.00;103223.14;1796476;78;26317;-76
2021/04/14 11:05:40;;;;;;;8.33;7.40;;;;;;;13.18;100.00;103219.88;1796442;80;26300;-76
2021/04/14 11:08:12;;;;;;;9.10;7.33;;;;;;;13.22;99.15;103218.33;1796353;80;26267;-76
2021/04/14 11:10:44;;;;;;;7.90;7.10;;;;;;;12.99;99.30;103217.77;1796434;79;26657;-76
2021/04/14 11:13:17;;;;;;;7.50;6.80;;;;;;;13.12;99.45;103216.70;1796513;79;26297;-76
2021/04/14 11:15:50;;;;;;;10.37;7.00;;;;;;;13.36;94.29;103212.75;1796467;79;26320;-76
2021/04/14 11:18:22;;;;;;;7.40;6.57;;;;;;;12.96;92.93;103217.41;1796512;80;26263;-76
2021/04/14 11:20:58;;;;;;;7.13;6.00;;;;;;;12.95;97.23;103210.98;1795484;79;26656;-75
2021/04/14 11:23:29;;;;;;;8.27;6.47;;;;;;;12.84;99.25;103209.57;1796396;79;26251;-76
2021/04/14 11:26:08;;;;;;;7.80;6.50;;;;;;;12.68;98.59;103207.83;1796341;80;26293;-76
2021/04/14 11:28:45;;;;;;;8.57;7.10;;;;;;;12.48;98.59;103205.94;1796286;80;26219;-76
2021/04/14 11:31:17;;;;;;;8.17;7.17;;;;;;;12.57;98.04;103205.89;1796506;80;26317;-75
2021/04/14 11:33:47;;;;;;;8.43;6.73;;;;;;;12.68;95.98;103205.03;1795149;78;26317;-74